Jackson Hole, Wyoming
Current Conditions -  °F | °C
As of 12:51 PM on Thursday 27 Nov 2014 (Local Time) from KJAC Reporting Station
Broken Clouds Broken Clouds  
Wind Chill:   Ceiling: 6500
Heat Index:   Visibility: 10mi
Dew Point: -3°   Wind: 16mph
Humidity: 49%   Direction: 200°SSW
Pressure: 30.18"   Gusts: NA
Location:  43.48°N, 110.761°W
Report Text: KJAC 271951Z 20014KT 10SM BKN065 07/M03 A3018
Loading
Personal Weather Stations






























Interactive Weather Map New forecast layout! Learn more

10-Day Weather Forecast

Advertisements
Track Severe Weather on mobile